Time;durP1;ratioP1;P1;durP2;ratioP2;P2;SDS_P1;SDS_P2;PMS_P1;PMS_P2;Temp;Humidity;BMP_temperature;BMP_pressure;BME280_temperature;BME280_humidity;BME280_pressure;Samples;Min_cycle;Max_cycle;Signal;HPM_P1;HPM_P2
2021/03/06 00:00:35;;;;;;;9.27;5.35;;;3.10;69.10;;;;;;4998129;28;20027;-64
2021/03/06 00:03:06;;;;;;;7.72;5.35;;;3.10;69.10;;;;;;5000016;28;20117;-64
2021/03/06 00:05:31;;;;;;;6.90;5.53;;;3.10;68.90;;;;;;5002868;28;20054;-64
2021/03/06 00:08:00;;;;;;;8.50;5.20;;;3.10;68.90;;;;;;5001522;28;20497;-64
2021/03/06 00:10:32;;;;;;;7.05;5.35;;;3.00;68.60;;;;;;4999647;28;20034;-64
2021/03/06 00:13:00;;;;;;;7.95;5.28;;;3.00;68.50;;;;;;5001669;28;20034;-64
2021/03/06 00:15:28;;;;;;;6.05;4.97;;;3.00;68.30;;;;;;5002315;28;20041;-64
2021/03/06 00:17:59;;;;;;;8.35;5.22;;;2.90;68.20;;;;;;5000890;28;20034;-64
2021/03/06 00:20:30;;;;;;;6.07;4.93;;;2.90;68.10;;;;;;5001976;28;20117;-64
2021/03/06 00:23:00;;;;;;;5.90;5.05;;;2.90;68.10;;;;;;5001928;28;20038;-64
2021/03/06 00:25:28;;;;;;;6.22;4.72;;;2.90;68.00;;;;;;5002631;28;20520;-64
2021/03/06 00:27:58;;;;;;;5.65;4.70;;;2.80;67.90;;;;;;5002052;28;20429;-64
2021/03/06 00:30:24;;;;;;;5.60;5.00;;;2.80;67.70;;;;;;4999598;28;20035;-64
2021/03/06 00:32:54;;;;;;;6.20;5.20;;;2.80;67.80;;;;;;5001118;28;20042;-64
2021/03/06 00:35:25;;;;;;;6.15;4.80;;;2.70;67.50;;;;;;5007045;28;20034;-64
2021/03/06 00:37:55;;;;;;;7.07;5.07;;;2.70;67.50;;;;;;5000787;28;20074;-64
2021/03/06 00:40:20;;;;;;;5.57;4.70;;;2.70;67.30;;;;;;5001456;28;20042;-64
2021/03/06 00:42:46;;;;;;;5.28;4.68;;;2.70;67.30;;;;;;5001609;28;20034;-64
2021/03/06 00:45:16;;;;;;;6.30;4.80;;;2.60;67.00;;;;;;5000433;28;20042;-64
2021/03/06 00:47:46;;;;;;;6.82;4.95;;;2.60;66.90;;;;;;5000267;28;20551;-65
2021/03/06 00:50:19;;;;;;;5.82;4.75;;;2.60;66.90;;;;;;5000852;28;20038;-64
2021/03/06 00:52:47;;;;;;;5.13;4.63;;;2.60;66.90;;;;;;5001224;28;20043;-64
2021/03/06 00:57:52;;;;;;;6.13;4.80;;;2.50;66.60;;;;;;5284505;22;20050;-63
2021/03/06 01:00:21;;;;;;;6.25;4.70;;;2.50;66.50;;;;;;5000332;28;20049;-63
2021/03/06 01:02:51;;;;;;;6.07;4.57;;;2.50;66.60;;;;;;5001104;28;20155;-65
2021/03/06 01:05:21;;;;;;;5.82;4.93;;;2.40;66.30;;;;;;5002960;28;20030;-64
2021/03/06 01:07:49;;;;;;;6.45;4.80;;;2.40;66.30;;;;;;5001912;28;20030;-64
2021/03/06 01:10:39;;;;;;;5.95;4.50;;;2.30;66.30;;;;;;5003370;28;20404;-64
2021/03/06 01:13:12;;;;;;;5.85;4.78;;;2.30;65.80;;;;;;5000488;28;20031;-64
2021/03/06 01:15:38;;;;;;;6.18;4.70;;;2.30;66.10;;;;;;5000119;28;20409;-64
2021/03/06 01:18:06;;;;;;;6.05;4.80;;;2.20;66.10;;;;;;5000439;28;20023;-64
2021/03/06 01:20:35;;;;;;;5.40;4.75;;;2.20;66.10;;;;;;5001390;28;20025;-64
2021/03/06 01:23:04;;;;;;;5.70;4.78;;;2.20;66.20;;;;;;5000769;28;20034;-64
2021/03/06 01:25:30;;;;;;;5.72;4.80;;;2.20;66.20;;;;;;5001224;28;20038;-64
2021/03/06 01:27:56;;;;;;;5.50;4.72;;;2.20;66.10;;;;;;5001482;28;20041;-64
2021/03/06 01:30:25;;;;;;;6.85;4.90;;;2.20;66.30;;;;;;5000765;28;20405;-65
2021/03/06 01:32:52;;;;;;;8.73;5.03;;;2.10;66.20;;;;;;5001336;28;20441;-64
2021/03/06 01:35:23;;;;;;;7.60;5.45;;;2.10;66.10;;;;;;5001835;28;20037;-64
2021/03/06 01:37:57;;;;;;;6.65;4.97;;;2.00;66.10;;;;;;5006531;28;20471;-63
2021/03/06 01:40:31;;;;;;;5.50;4.72;;;2.10;66.10;;;;;;5000777;28;20455;-64
2021/03/06 01:42:58;;;;;;;;;;;2.00;66.10;;;;;;5001158;28;20655;-64
2021/03/06 01:45:24;;;;;;;7.40;4.72;;;2.00;66.00;;;;;;5001093;28;20394;-65
2021/03/06 01:47:50;;;;;;;6.22;4.78;;;2.00;66.20;;;;;;5000490;28;20050;-64
2021/03/06 01:50:32;;;;;;;5.90;4.85;;;2.00;66.10;;;;;;5001712;28;20030;-64
2021/03/06 01:53:02;;;;;;;6.80;5.50;;;2.00;66.00;;;;;;4999249;28;20036;-63
2021/03/06 01:55:29;;;;;;;5.60;4.90;;;1.90;66.10;;;;;;4999920;28;20038;-64
2021/03/06 01:58:00;;;;;;;7.25;5.30;;;1.90;66.10;;;;;;5005167;28;20022;-64
2021/03/06 02:00:31;;;;;;;6.38;4.85;;;1.90;66.10;;;;;;5000860;28;20030;-64
2021/03/06 02:03:01;;;;;;;6.63;5.28;;;1.90;66.10;;;;;;4999489;28;20038;-64
2021/03/06 02:05:32;;;;;;;5.38;4.80;;;1.80;66.00;;;;;;5001352;28;20029;-64
2021/03/06 02:08:02;;;;;;;7.07;5.43;;;1.80;66.00;;;;;;5000205;28;20042;-63
2021/03/06 02:10:36;;;;;;;7.65;5.22;;;1.80;66.00;;;;;;4997859;28;20061;-64
2021/03/06 02:13:17;;;;;;;7.20;5.25;;;1.70;65.90;;;;;;4999655;28;20038;-64
2021/03/06 02:16:10;;;;;;;8.48;5.07;;;1.70;65.90;;;;;;4999585;28;20036;-64
2021/03/06 02:18:47;;;;;;;7.05;4.97;;;1.70;65.80;;;;;;4999568;28;20097;-64
2021/03/06 02:21:37;;;;;;;6.82;5.03;;;1.60;66.00;;;;;;4999353;28;20085;-64
2021/03/06 02:24:14;;;;;;;6.47;5.10;;;1.60;65.90;;;;;;5000257;28;20034;-64
2021/03/06 02:27:05;;;;;;;7.07;5.57;;;1.60;66.20;;;;;;4997974;28;21265;-64
2021/03/06 02:29:48;;;;;;;7.68;5.55;;;1.60;66.10;;;;;;4999873;28;20026;-65
2021/03/06 02:32:26;;;;;;;7.53;4.72;;;1.50;66.10;;;;;;4999293;28;20058;-65
2021/03/06 02:35:06;;;;;;;6.65;5.10;;;1.50;66.10;;;;;;4997454;28;20035;-64
2021/03/06 02:37:38;;;;;;;9.52;5.50;;;1.50;66.20;;;;;;4999614;28;20037;-64
2021/03/06 02:40:06;;;;;;;7.60;5.13;;;1.40;66.30;;;;;;4999998;28;20058;-64
2021/03/06 02:42:32;;;;;;;9.52;5.55;;;1.40;66.30;;;;;;4999101;28;20492;-64
2021/03/06 02:44:59;;;;;;;5.90;4.88;;;1.40;66.30;;;;;;4998870;28;20042;-64
2021/03/06 02:47:27;;;;;;;6.38;4.97;;;1.40;66.40;;;;;;4998725;28;20038;-64
2021/03/06 02:49:55;;;;;;;7.38;5.15;;;1.40;66.40;;;;;;5000430;28;20034;-62
2021/03/06 02:52:21;;;;;;;8.57;5.60;;;1.40;66.40;;;;;;4998042;28;20052;-64
2021/03/06 02:54:52;;;;;;;6.43;5.25;;;1.30;66.30;;;;;;4998241;28;20652;-64
2021/03/06 02:58:04;;;;;;;8.57;5.60;;;1.30;66.30;;;;;;4999940;28;20493;-64
2021/03/06 03:01:14;;;;;;;7.28;5.70;;;1.30;66.30;;;;;;5012948;28;20038;-64
2021/03/06 03:03:57;;;;;;;6.38;5.55;;;1.30;66.30;;;;;;5008881;28;20030;-64
2021/03/06 03:06:33;;;;;;;8.73;5.80;;;1.30;66.30;;;;;;4999375;28;20704;-64
2021/03/06 03:09:15;;;;;;;7.93;5.53;;;1.30;66.30;;;;;;4999116;28;20424;-64
2021/03/06 03:12:03;;;;;;;7.65;5.65;;;1.30;66.40;;;;;;4997965;28;20041;-64
2021/03/06 03:14:33;;;;;;;7.82;5.43;;;1.30;66.50;;;;;;4999002;28;20064;-64
2021/03/06 03:17:32;;;;;;;9.07;5.75;;;1.20;66.40;;;;;;4998608;28;20045;-64
2021/03/06 03:20:07;;;;;;;8.75;5.90;;;1.20;66.50;;;;;;4997935;28;20038;-63
2021/03/06 03:22:41;;;;;;;6.50;5.10;;;1.20;66.50;;;;;;4996645;28;20065;-64
2021/03/06 03:25:11;;;;;;;7.32;5.40;;;1.10;66.50;;;;;;4998362;28;20566;-65
2021/03/06 03:27:41;;;;;;;9.32;5.50;;;1.00;66.60;;;;;;4998810;28;20444;-64
2021/03/06 03:30:12;;;;;;;7.88;5.35;;;1.00;66.60;;;;;;4999432;28;20038;-64
2021/03/06 03:32:48;;;;;;;7.30;5.55;;;1.00;66.60;;;;;;4998674;28;20497;-64
2021/03/06 03:35:20;;;;;;;7.57;5.60;;;0.90;66.70;;;;;;4999052;28;20100;-64
2021/03/06 03:37:51;;;;;;;7.68;5.50;;;0.90;66.90;;;;;;4999641;28;20034;-64
2021/03/06 03:40:20;;;;;;;7.85;5.70;;;0.90;67.00;;;;;;5002180;28;20030;-64
2021/03/06 03:42:48;;;;;;;8.75;5.30;;;0.90;67.10;;;;;;5000663;28;20038;-65
2021/03/06 03:45:20;;;;;;;7.63;5.68;;;0.90;67.20;;;;;;5002323;28;20405;-63
2021/03/06 03:47:48;;;;;;;10.98;5.70;;;0.80;67.20;;;;;;5002917;28;20042;-65
2021/03/06 03:50:18;;;;;;;8.40;5.78;;;0.80;67.30;;;;;;5008085;28;20034;-65
2021/03/06 03:52:48;;;;;;;6.90;5.57;;;0.70;67.30;;;;;;5003058;28;20450;-64
2021/03/06 03:55:19;;;;;;;8.52;5.75;;;0.80;67.50;;;;;;5008611;28;20141;-64
2021/03/06 03:57:46;;;;;;;7.88;5.72;;;0.70;67.60;;;;;;5007556;28;20109;-64
2021/03/06 04:00:15;;;;;;;8.20;5.38;;;0.70;67.70;;;;;;5002607;28;20034;-63
2021/03/06 04:02:43;;;;;;;7.15;5.20;;;0.70;67.70;;;;;;5001276;28;20037;-64
2021/03/06 04:05:12;;;;;;;8.27;5.53;;;0.70;67.70;;;;;;5002677;28;20031;-64
2021/03/06 04:07:51;;;;;;;9.45;5.80;;;0.70;67.80;;;;;;5001688;28;20042;-64
2021/03/06 04:10:21;;;;;;;7.30;5.18;;;0.70;67.90;;;;;;5008418;28;20542;-64
2021/03/06 04:12:47;;;;;;;7.65;5.18;;;0.70;67.90;;;;;;4998861;28;20031;-64
2021/03/06 04:15:14;;;;;;;9.10;5.38;;;0.60;67.80;;;;;;5002093;28;20030;-64
2021/03/06 04:17:41;;;;;;;9.13;5.68;;;0.60;67.90;;;;;;5001152;28;20065;-64
2021/03/06 04:20:13;;;;;;;7.30;5.18;;;0.60;67.90;;;;;;5001095;28;20038;-64
2021/03/06 04:22:39;;;;;;;9.02;5.53;;;0.50;68.00;;;;;;5001020;28;20116;-64
2021/03/06 04:25:07;;;;;;;8.88;5.32;;;0.50;68.90;;;;;;5002101;28;20081;-64
2021/03/06 04:27:37;;;;;;;9.00;5.47;;;0.50;68.20;;;;;;5001484;28;20062;-64
2021/03/06 04:30:07;;;;;;;7.03;4.97;;;0.50;68.20;;;;;;5001767;28;20046;-64
2021/03/06 04:32:36;;;;;;;8.93;5.32;;;0.50;68.20;;;;;;5001943;28;20109;-64
2021/03/06 04:35:07;;;;;;;7.43;5.60;;;0.40;68.20;;;;;;5002297;28;20034;-65
2021/03/06 04:37:33;;;;;;;9.07;6.00;;;0.40;68.30;;;;;;5001288;28;20034;-64
2021/03/06 04:40:04;;;;;;;10.07;5.78;;;0.40;68.30;;;;;;5000739;28;20038;-64
2021/03/06 04:42:32;;;;;;;7.43;5.57;;;0.40;68.40;;;;;;5002205;28;20027;-64
2021/03/06 04:45:03;;;;;;;8.10;5.72;;;0.30;68.30;;;;;;5002209;28;20034;-64
2021/03/06 04:47:28;;;;;;;7.30;5.53;;;0.30;68.40;;;;;;5001395;28;20030;-65
2021/03/06 04:49:56;;;;;;;12.00;6.40;;;0.30;68.60;;;;;;5000134;28;20173;-63
2021/03/06 04:52:22;;;;;;;8.13;5.60;;;0.20;68.40;;;;;;5005876;28;20038;-64
2021/03/06 04:54:50;;;;;;;8.65;5.72;;;0.20;68.50;;;;;;5001310;28;20117;-64
2021/03/06 04:57:18;;;;;;;7.80;5.80;;;0.20;68.60;;;;;;5001878;28;20930;-64
2021/03/06 04:59:48;;;;;;;9.18;5.97;;;0.20;68.70;;;;;;5001542;28;20127;-64
2021/03/06 05:02:13;;;;;;;7.50;5.88;;;0.20;68.70;;;;;;5000400;28;20038;-64
2021/03/06 05:04:40;;;;;;;8.07;6.10;;;0.20;68.70;;;;;;5001489;28;20037;-64
2021/03/06 05:07:07;;;;;;;9.18;5.85;;;0.20;68.80;;;;;;5001567;28;20408;-64
2021/03/06 05:09:38;;;;;;;9.77;6.28;;;0.20;68.70;;;;;;5001530;28;20026;-63
2021/03/06 05:12:04;;;;;;;10.13;5.85;;;0.20;68.70;;;;;;5000488;28;20039;-64
2021/03/06 05:14:32;;;;;;;9.27;5.97;;;0.20;68.70;;;;;;5000733;28;20116;-64
2021/03/06 05:17:00;;;;;;;9.40;6.85;;;0.20;68.80;;;;;;5001668;28;20038;-64
2021/03/06 05:19:27;;;;;;;9.88;5.80;;;0.20;68.80;;;;;;5006692;28;20412;-64
2021/03/06 05:21:55;;;;;;;8.50;6.05;;;0.20;68.70;;;;;;5001553;28;20030;-64
2021/03/06 05:24:26;;;;;;;8.40;6.00;;;0.20;68.70;;;;;;5006239;28;20579;-65
2021/03/06 05:27:03;;;;;;;9.57;6.10;;;0.10;68.70;;;;;;5000386;28;20121;-64
2021/03/06 05:29:33;;;;;;;8.73;6.10;;;0.20;68.80;;;;;;5001419;28;20039;-64
2021/03/06 05:32:06;;;;;;;9.43;5.97;;;0.10;68.70;;;;;;5000753;28;20501;-64
2021/03/06 05:34:35;;;;;;;8.60;5.47;;;0.10;68.70;;;;;;5000266;28;20571;-64
2021/03/06 05:37:06;;;;;;;8.30;6.05;;;0.10;68.80;;;;;;5001149;28;20423;-64
2021/03/06 05:39:34;;;;;;;8.98;5.75;;;0.10;68.80;;;;;;5001315;28;20077;-64
2021/03/06 05:42:05;;;;;;;8.40;5.65;;;0.10;68.90;;;;;;5000927;28;20034;-64
2021/03/06 05:44:36;;;;;;;8.50;5.80;;;0.10;68.90;;;;;;5005715;28;20038;-64
2021/03/06 05:47:05;;;;;;;9.30;6.35;;;0.10;69.80;;;;;;5000430;28;20061;-64
2021/03/06 05:49:32;;;;;;;9.48;6.22;;;0.10;69.00;;;;;;5000928;28;20040;-64
2021/03/06 05:52:01;;;;;;;8.48;5.88;;;0.00;68.90;;;;;;5000786;28;20034;-64
2021/03/06 05:54:32;;;;;;;10.10;6.15;;;0.00;68.90;;;;;;4999229;28;20031;-64
2021/03/06 05:56:58;;;;;;;7.82;5.93;;;0.00;68.90;;;;;;5000142;28;20069;-64
2021/03/06 05:59:30;;;;;;;9.68;6.22;;;0.00;69.10;;;;;;5000437;28;20034;-64
2021/03/06 06:02:01;;;;;;;7.35;5.95;;;0.00;69.00;;;;;;5000552;28;20113;-63
2021/03/06 06:04:28;;;;;;;8.85;5.85;;;0.00;68.90;;;;;;5000130;28;20058;-64
2021/03/06 06:06:56;;;;;;;12.10;6.90;;;0.00;68.90;;;;;;4999711;28;20518;-64
2021/03/06 06:09:27;;;;;;;10.10;6.65;;;0.00;68.80;;;;;;5000098;28;20034;-64
2021/03/06 06:11:55;;;;;;;9.68;6.43;;;-0.10;68.70;;;;;;4998455;28;20031;-65
2021/03/06 06:14:22;;;;;;;10.30;6.90;;;-0.10;68.70;;;;;;5000045;28;20039;-64
2021/03/06 06:16:48;;;;;;;9.05;6.93;;;-0.10;68.90;;;;;;4999430;28;20120;-64
2021/03/06 06:19:16;;;;;;;10.25;6.50;;;-0.20;68.90;;;;;;4999651;28;20052;-64
2021/03/06 06:21:50;;;;;;;8.52;6.53;;;-0.30;69.00;;;;;;5000301;28;20504;-64
2021/03/06 06:24:22;;;;;;;9.43;5.97;;;-0.40;69.30;;;;;;4999937;28;20038;-65
2021/03/06 06:27:00;;;;;;;8.98;6.57;;;-0.40;69.40;;;;;;4996605;28;20062;-65
2021/03/06 06:29:37;;;;;;;9.18;6.43;;;-0.50;69.80;;;;;;4994689;28;20444;-65
2021/03/06 06:32:07;;;;;;;7.78;6.15;;;-0.50;70.00;;;;;;4989875;28;20044;-64
2021/03/06 06:34:35;;;;;;;9.40;6.30;;;-0.50;70.10;;;;;;4997948;28;20451;-64
2021/03/06 06:37:11;;;;;;;13.25;6.45;;;-0.50;70.10;;;;;;5000617;28;20053;-65
2021/03/06 06:39:37;;;;;;;10.52;6.90;;;-0.50;70.50;;;;;;5000348;28;20031;-65
2021/03/06 06:42:09;;;;;;;9.50;6.88;;;-0.50;70.40;;;;;;4995502;28;20029;-65
2021/03/06 06:44:36;;;;;;;10.57;6.93;;;-0.50;70.50;;;;;;5000323;28;20048;-65
2021/03/06 06:47:16;;;;;;;10.18;6.90;;;-0.40;70.50;;;;;;5000152;28;20038;-65
2021/03/06 06:49:53;;;;;;;11.77;7.35;;;-0.40;70.70;;;;;;4995005;28;20424;-65
2021/03/06 06:52:23;;;;;;;10.65;7.15;;;-0.40;71.50;;;;;;4999994;28;20116;-65
2021/03/06 06:55:02;;;;;;;12.18;7.28;;;-0.30;70.60;;;;;;5001214;28;20121;-64
2021/03/06 06:57:30;;;;;;;15.90;7.43;;;-0.30;70.80;;;;;;5000575;28;20042;-65
2021/03/06 07:00:06;;;;;;;11.65;7.55;;;-0.30;70.60;;;;;;5000819;28;20046;-65
2021/03/06 07:02:34;;;;;;;10.20;7.18;;;-0.30;70.60;;;;;;4988767;28;20036;-65
2021/03/06 07:05:06;;;;;;;9.90;6.90;;;-0.20;70.60;;;;;;5004111;28;20034;-65
2021/03/06 07:07:44;;;;;;;10.43;7.32;;;-0.20;70.60;;;;;;5001093;28;20113;-65
2021/03/06 07:10:20;;;;;;;13.00;7.40;;;-0.20;70.90;;;;;;4998552;28;20038;-65
2021/03/06 07:13:00;;;;;;;10.82;7.20;;;-0.30;70.80;;;;;;4997646;28;20041;-64
2021/03/06 07:15:30;;;;;;;10.45;6.70;;;-0.10;71.00;;;;;;5004966;28;20034;-65
2021/03/06 07:18:00;;;;;;;13.68;8.18;;;-0.10;70.80;;;;;;5005399;28;20037;-65
2021/03/06 07:20:36;;;;;;;11.18;8.13;;;0.00;71.10;;;;;;5003240;28;20113;-65
2021/03/06 07:23:21;;;;;;;11.02;7.80;;;0.00;71.00;;;;;;5003988;28;20027;-65
2021/03/06 07:25:59;;;;;;;10.52;7.63;;;0.10;71.30;;;;;;5004896;28;20056;-65
2021/03/06 07:28:28;;;;;;;11.10;8.07;;;0.10;71.20;;;;;;5010031;28;20501;-65
2021/03/06 07:30:59;;;;;;;11.55;7.82;;;0.20;71.30;;;;;;5003348;28;20571;-65
2021/03/06 07:33:26;;;;;;;15.48;8.27;;;0.20;71.30;;;;;;5005243;28;20031;-65
2021/03/06 07:35:54;;;;;;;12.43;8.45;;;0.20;71.30;;;;;;5006356;28;20034;-64
2021/03/06 07:38:21;;;;;;;12.45;8.80;;;0.30;71.40;;;;;;5008056;28;20052;-64
2021/03/06 07:40:51;;;;;;;15.13;8.48;;;0.40;71.40;;;;;;5003379;28;20149;-65
2021/03/06 07:43:25;;;;;;;13.48;8.70;;;0.40;71.50;;;;;;5006506;28;20493;-64
2021/03/06 07:45:55;;;;;;;15.50;9.32;;;0.40;71.50;;;;;;5005515;28;20038;-64
2021/03/06 07:48:27;;;;;;;14.23;8.88;;;0.50;71.50;;;;;;5004818;28;20030;-65
2021/03/06 07:50:57;;;;;;;12.55;9.20;;;0.60;71.50;;;;;;5005649;28;20042;-64
2021/03/06 07:53:25;;;;;;;14.85;9.02;;;0.60;71.40;;;;;;5002572;28;20057;-65
2021/03/06 07:55:53;;;;;;;13.77;8.98;;;0.70;71.30;;;;;;5009939;28;20069;-64
2021/03/06 07:58:24;;;;;;;14.77;9.07;;;0.70;71.20;;;;;;5004350;28;20054;-64
2021/03/06 08:00:59;;;;;;;12.88;8.82;;;0.80;71.30;;;;;;5005776;28;20034;-64
2021/03/06 08:03:33;;;;;;;13.35;8.77;;;0.80;71.30;;;;;;5003742;28;20029;-65
2021/03/06 08:06:16;;;;;;;15.67;9.37;;;0.90;71.30;;;;;;5005073;28;20046;-65
2021/03/06 08:08:44;;;;;;;13.90;9.35;;;0.90;71.20;;;;;;5001664;28;20046;-64
2021/03/06 08:11:22;;;;;;;13.45;9.05;;;1.00;71.00;;;;;;5003380;28;20125;-65
2021/03/06 08:13:59;;;;;;;15.50;9.60;;;1.00;70.90;;;;;;5005498;28;20366;-65
2021/03/06 08:16:32;;;;;;;14.38;9.30;;;1.10;71.00;;;;;;5002739;28;20037;-65
2021/03/06 08:19:13;;;;;;;15.05;9.50;;;1.10;70.90;;;;;;5005763;28;20281;-64
2021/03/06 08:21:56;;;;;;;13.60;9.05;;;1.10;71.00;;;;;;5003787;28;20108;-65
2021/03/06 08:24:23;;;;;;;15.43;9.82;;;1.20;71.00;;;;;;5002475;28;20038;-65
2021/03/06 08:27:08;;;;;;;12.98;9.23;;;1.20;70.80;;;;;;5001299;28;20050;-65
2021/03/06 08:29:44;;;;;;;14.80;9.25;;;1.20;70.80;;;;;;5000498;28;20034;-64
2021/03/06 08:32:17;;;;;;;15.35;9.40;;;1.30;71.00;;;;;;5002220;28;20030;-64
2021/03/06 08:34:57;;;;;;;16.92;9.45;;;1.30;70.80;;;;;;5001275;28;20053;-65
2021/03/06 08:37:25;;;;;;;14.40;9.82;;;1.40;71.00;;;;;;5001085;28;20046;-65
2021/03/06 08:40:23;;;;;;;11.90;7.85;;;1.40;70.90;;;;;;5001777;28;20448;-65
2021/03/06 08:42:56;;;;;;;12.65;9.13;;;1.50;71.10;;;;;;5002095;28;20508;-65
2021/03/06 08:45:31;;;;;;;13.52;8.88;;;1.60;70.90;;;;;;5000668;28;20412;-64
2021/03/06 08:48:04;;;;;;;15.38;9.05;;;1.60;70.70;;;;;;5001625;28;20504;-64
2021/03/06 08:50:35;;;;;;;12.80;8.80;;;1.70;70.60;;;;;;5000522;28;20045;-64
2021/03/06 08:53:11;;;;;;;13.25;8.52;;;1.70;70.40;;;;;;5000136;28;20026;-64
2021/03/06 08:55:44;;;;;;;13.27;8.15;;;1.80;70.30;;;;;;5000621;28;20378;-64
2021/03/06 08:58:16;;;;;;;12.50;8.35;;;1.90;70.20;;;;;;5000502;28;20074;-65
2021/03/06 09:00:58;;;;;;;12.77;8.23;;;1.90;70.00;;;;;;5000941;28;20030;-65
2021/03/06 09:03:30;;;;;;;16.20;8.50;;;2.00;70.00;;;;;;5001242;28;20257;-64
2021/03/06 09:06:00;;;;;;;12.50;8.02;;;2.10;70.00;;;;;;4998902;28;20034;-64
2021/03/06 09:08:31;;;;;;;12.98;8.15;;;2.20;69.60;;;;;;4999847;28;20112;-65
2021/03/06 09:11:00;;;;;;;12.15;8.27;;;2.30;69.20;;;;;;5000090;28;20029;-65
2021/03/06 09:13:30;;;;;;;11.57;7.90;;;2.30;69.10;;;;;;5001316;28;20034;-64
2021/03/06 09:16:05;;;;;;;10.95;7.75;;;2.40;69.90;;;;;;5000728;28;20042;-64
2021/03/06 09:18:37;;;;;;;10.60;7.18;;;2.50;68.80;;;;;;5000363;28;20037;-64
2021/03/06 09:21:17;;;;;;;10.30;6.88;;;2.60;68.90;;;;;;5001348;28;20045;-64
2021/03/06 09:23:45;;;;;;;9.63;6.63;;;2.60;68.60;;;;;;5000673;28;20448;-64
2021/03/06 09:26:16;;;;;;;10.13;6.50;;;2.70;68.60;;;;;;5000770;28;20039;-64
2021/03/06 09:28:42;;;;;;;11.93;6.93;;;2.80;68.20;;;;;;4993407;28;20123;-64
2021/03/06 09:31:21;;;;;;;9.50;6.50;;;3.00;68.20;;;;;;4993014;28;20064;-64
2021/03/06 09:33:49;;;;;;;9.55;6.28;;;3.00;67.60;;;;;;4994692;28;20042;-65
2021/03/06 09:36:21;;;;;;;11.20;6.40;;;3.10;67.70;;;;;;4995790;28;20547;-65
2021/03/06 09:38:51;;;;;;;8.23;6.15;;;3.10;67.40;;;;;;4994939;28;21945;-64
2021/03/06 09:41:27;;;;;;;12.73;6.55;;;3.20;67.40;;;;;;4993779;28;20034;-64
2021/03/06 09:43:59;;;;;;;8.13;5.88;;;3.30;67.00;;;;;;4994989;28;20030;-64
2021/03/06 09:46:30;;;;;;;9.52;6.35;;;3.40;66.80;;;;;;4995364;28;20031;-64
2021/03/06 09:49:04;;;;;;;7.50;5.75;;;3.50;66.70;;;;;;4993617;28;20093;-63
2021/03/06 09:51:52;;;;;;;8.30;5.72;;;3.60;66.30;;;;;;4999351;28;20033;-64
2021/03/06 09:54:24;;;;;;;8.40;5.40;;;3.60;65.50;;;;;;4995100;28;20034;-64
2021/03/06 09:56:53;;;;;;;7.72;5.50;;;3.70;65.80;;;;;;4998877;28;20093;-64
2021/03/06 09:59:20;;;;;;;7.93;5.55;;;3.70;65.60;;;;;;4993663;28;20034;-63
2021/03/06 10:01:48;;;;;;;7.40;5.75;;;3.80;65.60;;;;;;4994908;28;20041;-64
2021/03/06 10:04:20;;;;;;;7.13;5.35;;;3.80;65.60;;;;;;4992259;28;20505;-64
2021/03/06 10:06:58;;;;;;;5.68;4.63;;;3.90;65.30;;;;;;4993571;28;20443;-64
2021/03/06 10:09:25;;;;;;;6.75;5.38;;;3.90;64.90;;;;;;4991172;28;20034;-64
2021/03/06 10:11:53;;;;;;;7.25;5.20;;;4.00;64.90;;;;;;4992444;28;20046;-64
2021/03/06 10:14:25;;;;;;;6.75;5.20;;;4.10;64.70;;;;;;4991208;28;20142;-64
2021/03/06 10:17:13;;;;;;;6.55;5.13;;;4.10;64.40;;;;;;4993709;28;20045;-64
2021/03/06 10:19:51;;;;;;;6.95;5.05;;;4.20;63.50;;;;;;4993671;28;20033;-64
2021/03/06 10:22:19;;;;;;;8.63;4.97;;;4.30;63.90;;;;;;4993037;28;20069;-65
2021/03/06 10:25:02;;;;;;;7.53;4.95;;;4.40;64.10;;;;;;4993105;28;20149;-64
2021/03/06 10:27:47;;;;;;;6.28;4.88;;;4.40;63.30;;;;;;4992052;28;20656;-65
2021/03/06 10:30:18;;;;;;;;;;;4.40;63.20;;;;;;4994976;28;20034;-64
2021/03/06 10:32:47;;;;;;;7.57;4.90;;;4.50;63.50;;;;;;4998478;28;19925;-64
2021/03/06 10:35:54;;;;;;;6.75;5.20;;;4.60;63.70;;;;;;4995154;28;20034;-64
2021/03/06 10:38:31;;;;;;;6.32;4.95;;;4.60;62.80;;;;;;4997620;28;20030;-64
2021/03/06 10:40:58;;;;;;;7.85;5.30;;;4.70;63.50;;;;;;4999704;28;20313;-64
2021/03/06 10:43:43;;;;;;;6.68;5.07;;;4.80;62.60;;;;;;4999162;28;20041;-64
2021/03/06 10:46:27;;;;;;;7.22;4.97;;;4.80;62.30;;;;;;4999204;28;20030;-64
2021/03/06 10:49:07;;;;;;;5.85;4.68;;;4.80;62.00;;;;;;4998453;28;20460;-64
2021/03/06 10:51:49;;;;;;;5.57;4.95;;;4.90;62.60;;;;;;5000391;28;20404;-64
2021/03/06 10:54:18;;;;;;;6.88;5.03;;;5.00;61.80;;;;;;4997286;28;20033;-64
2021/03/06 10:56:46;;;;;;;7.10;4.78;;;5.00;62.20;;;;;;4997100;28;20487;-65
2021/03/06 10:59:12;;;;;;;6.43;4.97;;;5.10;62.20;;;;;;5013425;28;20125;-64
2021/03/06 11:01:50;;;;;;;6.82;5.00;;;5.10;62.00;;;;;;4997072;28;20129;-65
2021/03/06 11:04:34;;;;;;;5.65;4.55;;;5.20;61.10;;;;;;4998794;28;20425;-64
2021/03/06 11:07:05;;;;;;;4.37;3.30;;;5.30;61.30;;;;;;4998433;28;20034;-64
2021/03/06 11:09:36;;;;;;;7.22;4.70;;;5.40;62.10;;;;;;4998858;28;20095;-64
2021/03/06 11:12:37;;;;;;;5.70;4.45;;;5.40;61.80;;;;;;4996123;28;20548;-64
2021/03/06 11:15:16;;;;;;;7.05;4.85;;;5.50;60.20;;;;;;4996414;28;20034;-64
2021/03/06 11:17:47;;;;;;;6.80;4.50;;;5.60;60.70;;;;;;4997205;28;20029;-65
2021/03/06 11:20:15;;;;;;;5.93;4.72;;;5.60;60.90;;;;;;4998311;28;20112;-64
2021/03/06 11:22:47;;;;;;;5.32;4.32;;;5.70;60.60;;;;;;4998309;28;20464;-65
2021/03/06 11:25:14;;;;;;;5.85;4.68;;;5.70;60.30;;;;;;4998800;28;20022;-64
2021/03/06 11:27:53;;;;;;;6.05;4.88;;;5.70;60.40;;;;;;4998350;28;21185;-64
2021/03/06 11:30:27;;;;;;;6.05;5.07;;;5.80;60.20;;;;;;4994834;28;20037;-64
2021/03/06 11:32:54;;;;;;;5.75;4.43;;;5.80;59.50;;;;;;4997405;28;20030;-65
2021/03/06 11:35:24;;;;;;;5.32;4.65;;;5.90;60.00;;;;;;4997196;28;20030;-65
2021/03/06 11:37:53;;;;;;;5.50;4.43;;;5.90;60.40;;;;;;4996995;28;20030;-65
2021/03/06 11:40:25;;;;;;;5.47;4.55;;;6.00;59.80;;;;;;4998551;28;20034;-64
2021/03/06 11:42:53;;;;;;;6.47;4.50;;;6.00;59.80;;;;;;4996812;28;20428;-65
2021/03/06 11:45:21;;;;;;;5.25;4.32;;;6.10;59.80;;;;;;4999266;28;20118;-65
2021/03/06 11:47:51;;;;;;;6.75;4.47;;;6.10;59.80;;;;;;4993446;28;20061;-65
2021/03/06 11:50:18;;;;;;;7.25;4.38;;;6.20;59.30;;;;;;4994529;28;20027;-65
2021/03/06 11:52:47;;;;;;;5.45;4.47;;;6.30;59.70;;;;;;4997088;28;20082;-64
2021/03/06 11:55:16;;;;;;;5.88;4.55;;;6.30;59.50;;;;;;4994877;28;20050;-65
2021/03/06 11:57:42;;;;;;;6.30;4.25;;;6.40;59.10;;;;;;4995379;28;20080;-65
2021/03/06 12:00:31;;;;;;;5.80;4.68;;;6.50;58.80;;;;;;4997017;28;20121;-65
2021/03/06 12:03:03;;;;;;;4.63;3.95;;;6.50;57.10;;;;;;5001063;28;20033;-65
2021/03/06 12:05:37;;;;;;;4.22;3.60;;;6.50;58.40;;;;;;5002178;28;20027;-64
2021/03/06 12:08:02;;;;;;;6.32;3.97;;;6.60;58.30;;;;;;5002864;28;20026;-65
2021/03/06 12:10:30;;;;;;;4.82;4.20;;;6.60;58.40;;;;;;4999124;28;20416;-64
2021/03/06 12:12:59;;;;;;;4.72;4.03;;;6.70;58.70;;;;;;5003267;28;20608;-64
2021/03/06 12:15:29;;;;;;;5.95;4.47;;;6.70;57.80;;;;;;5018069;28;20026;-65
2021/03/06 12:18:00;;;;;;;5.82;4.10;;;6.80;57.40;;;;;;5006454;28;20503;-65
2021/03/06 12:20:30;;;;;;;4.43;4.00;;;6.80;57.90;;;;;;4999972;28;20117;-64
2021/03/06 12:22:57;;;;;;;5.75;3.83;;;6.80;57.70;;;;;;5002034;28;20497;-65
2021/03/06 12:25:25;;;;;;;4.57;3.85;;;6.90;57.70;;;;;;5002034;28;20039;-65
2021/03/06 12:27:51;;;;;;;9.90;3.85;;;6.90;57.20;;;;;;4999811;28;20046;-67
2021/03/06 12:30:21;;;;;;;6.05;4.15;;;7.00;57.50;;;;;;5000752;28;20034;-67
2021/03/06 12:32:49;;;;;;;5.97;4.15;;;7.00;57.00;;;;;;5000676;28;20034;-65
2021/03/06 12:35:18;;;;;;;6.13;3.50;;;7.00;57.30;;;;;;5001406;28;20493;-65
2021/03/06 12:37:44;;;;;;;4.20;3.50;;;7.10;57.00;;;;;;5001924;28;20164;-65
2021/03/06 12:40:11;;;;;;;4.85;3.70;;;7.10;56.90;;;;;;5000870;28;20464;-65
2021/03/06 12:42:37;;;;;;;4.00;3.60;;;7.10;56.60;;;;;;5001171;28;20061;-65
2021/03/06 12:45:07;;;;;;;5.72;3.83;;;7.10;56.30;;;;;;5000762;28;20088;-65
2021/03/06 12:47:33;;;;;;;4.10;3.58;;;7.10;55.80;;;;;;5001353;28;20057;-65
2021/03/06 12:50:01;;;;;;;3.97;3.42;;;7.10;55.90;;;;;;5000864;28;20035;-65
2021/03/06 12:52:26;;;;;;;4.18;3.67;;;7.10;55.60;;;;;;5001457;28;20026;-65
2021/03/06 12:54:52;;;;;;;3.78;3.05;;;7.10;55.80;;;;;;5001461;28;20527;-65
2021/03/06 12:57:20;;;;;;;6.00;4.00;;;7.10;55.40;;;;;;4999818;28;20038;-65
2021/03/06 12:59:48;;;;;;;4.13;3.40;;;7.10;54.30;;;;;;5000629;28;20042;-65
2021/03/06 13:02:16;;;;;;;3.80;3.42;;;7.10;55.40;;;;;;4998349;28;20034;-64
2021/03/06 13:04:46;;;;;;;4.30;3.42;;;7.10;54.90;;;;;;5000245;28;20404;-65
2021/03/06 13:07:14;;;;;;;4.43;3.40;;;7.10;54.30;;;;;;5000077;28;20041;-66
2021/03/06 13:09:40;;;;;;;3.50;3.20;;;7.10;54.10;;;;;;5007330;28;20114;-66
2021/03/06 13:12:06;;;;;;;3.85;3.40;;;7.20;54.40;;;;;;4996483;28;20120;-66
2021/03/06 13:14:36;;;;;;;3.60;3.30;;;7.10;54.80;;;;;;5000462;28;20045;-66
2021/03/06 13:17:02;;;;;;;5.07;3.45;;;7.20;54.60;;;;;;5000341;28;20051;-66
2021/03/06 13:19:27;;;;;;;5.05;3.60;;;7.20;54.80;;;;;;5000671;28;20026;-66
2021/03/06 13:21:58;;;;;;;4.18;3.30;;;7.20;54.00;;;;;;4999576;28;20037;-65